sensor_id;sensor_type;location;lat;lon;timestamp;P1;durP1;ratioP1;P2;durP2;ratioP2
19341;SDS011;9807;48.258;12.690;2023-11-22T00:00:12;14.77;;;10.03;;
19341;SDS011;9807;48.258;12.690;2023-11-22T00:02:39;19.33;;;10.93;;
19341;SDS011;9807;48.258;12.690;2023-11-22T00:05:05;16.50;;;10.03;;
19341;SDS011;9807;48.258;12.690;2023-11-22T00:07:32;15.33;;;9.93;;
19341;SDS011;9807;48.258;12.690;2023-11-22T00:09:58;18.20;;;11.00;;
19341;SDS011;9807;48.258;12.690;2023-11-22T00:12:23;17.50;;;10.60;;
19341;SDS011;9807;48.258;12.690;2023-11-22T00:14:49;14.73;;;9.80;;
19341;SDS011;9807;48.258;12.690;2023-11-22T00:17:16;16.07;;;9.87;;
19341;SDS011;9807;48.258;12.690;2023-11-22T00:19:46;15.73;;;9.50;;
19341;SDS011;9807;48.258;12.690;2023-11-22T00:22:12;16.23;;;10.20;;
19341;SDS011;9807;48.258;12.690;2023-11-22T00:24:41;16.23;;;10.17;;
19341;SDS011;9807;48.258;12.690;2023-11-22T00:27:07;18.90;;;10.23;;
19341;SDS011;9807;48.258;12.690;2023-11-22T00:29:34;14.43;;;9.30;;
19341;SDS011;9807;48.258;12.690;2023-11-22T00:31:59;15.57;;;9.47;;
19341;SDS011;9807;48.258;12.690;2023-11-22T00:34:25;20.47;;;9.77;;
19341;SDS011;9807;48.258;12.690;2023-11-22T00:36:51;15.63;;;9.37;;
19341;SDS011;9807;48.258;12.690;2023-11-22T00:39:17;12.90;;;8.77;;
19341;SDS011;9807;48.258;12.690;2023-11-22T00:41:43;12.63;;;8.70;;
19341;SDS011;9807;48.258;12.690;2023-11-22T00:44:10;14.77;;;8.73;;
19341;SDS011;9807;48.258;12.690;2023-11-22T00:46:36;12.63;;;8.80;;
19341;SDS011;9807;48.258;12.690;2023-11-22T00:49:04;11.17;;;8.27;;
19341;SDS011;9807;48.258;12.690;2023-11-22T00:51:31;12.73;;;7.90;;
19341;SDS011;9807;48.258;12.690;2023-11-22T00:53:58;13.07;;;8.67;;
19341;SDS011;9807;48.258;12.690;2023-11-22T00:56:24;11.57;;;8.13;;
19341;SDS011;9807;48.258;12.690;2023-11-22T00:58:50;11.47;;;8.20;;
19341;SDS011;9807;48.258;12.690;2023-11-22T01:01:19;11.60;;;8.13;;
19341;SDS011;9807;48.258;12.690;2023-11-22T01:03:45;11.33;;;7.47;;
19341;SDS011;9807;48.258;12.690;2023-11-22T01:06:12;13.30;;;7.97;;
19341;SDS011;9807;48.258;12.690;2023-11-22T01:08:40;12.57;;;8.20;;
19341;SDS011;9807;48.258;12.690;2023-11-22T01:11:06;11.20;;;8.37;;
19341;SDS011;9807;48.258;12.690;2023-11-22T01:13:32;11.53;;;7.57;;
19341;SDS011;9807;48.258;12.690;2023-11-22T01:16:05;11.23;;;8.50;;
19341;SDS011;9807;48.258;12.690;2023-11-22T01:18:31;11.73;;;7.93;;
19341;SDS011;9807;48.258;12.690;2023-11-22T01:20:57;10.93;;;7.87;;
19341;SDS011;9807;48.258;12.690;2023-11-22T01:23:22;11.13;;;7.70;;
19341;SDS011;9807;48.258;12.690;2023-11-22T01:25:48;8.97;;;6.97;;
19341;SDS011;9807;48.258;12.690;2023-11-22T01:28:16;11.03;;;7.53;;
19341;SDS011;9807;48.258;12.690;2023-11-22T01:30:44;9.63;;;7.27;;
19341;SDS011;9807;48.258;12.690;2023-11-22T01:33:17;10.80;;;7.47;;
19341;SDS011;9807;48.258;12.690;2023-11-22T01:35:46;11.00;;;7.53;;
19341;SDS011;9807;48.258;12.690;2023-11-22T01:38:11;8.13;;;6.40;;
19341;SDS011;9807;48.258;12.690;2023-11-22T01:40:47;8.03;;;5.83;;
19341;SDS011;9807;48.258;12.690;2023-11-22T01:43:17;8.67;;;6.37;;
19341;SDS011;9807;48.258;12.690;2023-11-22T01:45:44;8.83;;;6.33;;
19341;SDS011;9807;48.258;12.690;2023-11-22T01:48:12;8.57;;;6.67;;
19341;SDS011;9807;48.258;12.690;2023-11-22T01:50:42;7.90;;;6.13;;
19341;SDS011;9807;48.258;12.690;2023-11-22T01:53:12;9.67;;;6.43;;
19341;SDS011;9807;48.258;12.690;2023-11-22T01:55:44;9.07;;;6.57;;
19341;SDS011;9807;48.258;12.690;2023-11-22T01:58:11;8.50;;;6.07;;
19341;SDS011;9807;48.258;12.690;2023-11-22T02:00:50;9.00;;;6.40;;
19341;SDS011;9807;48.258;12.690;2023-11-22T02:03:17;8.87;;;6.27;;
19341;SDS011;9807;48.258;12.690;2023-11-22T02:05:44;9.27;;;6.80;;
19341;SDS011;9807;48.258;12.690;2023-11-22T02:08:11;10.97;;;6.40;;
19341;SDS011;9807;48.258;12.690;2023-11-22T02:10:37;7.47;;;5.70;;
19341;SDS011;9807;48.258;12.690;2023-11-22T02:13:05;8.40;;;5.80;;
19341;SDS011;9807;48.258;12.690;2023-11-22T02:15:36;7.17;;;5.73;;
19341;SDS011;9807;48.258;12.690;2023-11-22T02:18:02;8.90;;;5.50;;
19341;SDS011;9807;48.258;12.690;2023-11-22T02:20:29;8.07;;;5.10;;
19341;SDS011;9807;48.258;12.690;2023-11-22T02:22:55;7.70;;;5.60;;
19341;SDS011;9807;48.258;12.690;2023-11-22T02:25:22;6.37;;;5.20;;
19341;SDS011;9807;48.258;12.690;2023-11-22T02:27:47;7.00;;;5.50;;
19341;SDS011;9807;48.258;12.690;2023-11-22T02:30:17;7.17;;;5.90;;
19341;SDS011;9807;48.258;12.690;2023-11-22T02:32:43;7.67;;;5.80;;
19341;SDS011;9807;48.258;12.690;2023-11-22T02:35:10;7.93;;;5.70;;
19341;SDS011;9807;48.258;12.690;2023-11-22T02:37:35;10.13;;;6.17;;
19341;SDS011;9807;48.258;12.690;2023-11-22T02:40:17;7.47;;;6.03;;
19341;SDS011;9807;48.258;12.690;2023-11-22T02:42:44;7.17;;;5.70;;
19341;SDS011;9807;48.258;12.690;2023-11-22T02:45:11;6.70;;;5.20;;
19341;SDS011;9807;48.258;12.690;2023-11-22T02:47:37;5.80;;;4.90;;
19341;SDS011;9807;48.258;12.690;2023-11-22T02:50:03;9.57;;;5.83;;
19341;SDS011;9807;48.258;12.690;2023-11-22T02:52:30;7.90;;;5.67;;
19341;SDS011;9807;48.258;12.690;2023-11-22T02:54:57;7.67;;;5.87;;
19341;SDS011;9807;48.258;12.690;2023-11-22T02:57:23;6.83;;;5.10;;
19341;SDS011;9807;48.258;12.690;2023-11-22T02:59:49;6.73;;;5.10;;
19341;SDS011;9807;48.258;12.690;2023-11-22T03:02:15;6.70;;;5.30;;
19341;SDS011;9807;48.258;12.690;2023-11-22T03:04:44;5.93;;;4.90;;
19341;SDS011;9807;48.258;12.690;2023-11-22T03:07:09;10.80;;;5.37;;
19341;SDS011;9807;48.258;12.690;2023-11-22T03:09:35;7.93;;;5.23;;
19341;SDS011;9807;48.258;12.690;2023-11-22T03:12:01;6.30;;;5.20;;
19341;SDS011;9807;48.258;12.690;2023-11-22T03:14:27;6.83;;;5.47;;
19341;SDS011;9807;48.258;12.690;2023-11-22T03:16:54;8.00;;;5.83;;
19341;SDS011;9807;48.258;12.690;2023-11-22T03:19:20;7.13;;;5.23;;
19341;SDS011;9807;48.258;12.690;2023-11-22T03:21:52;8.30;;;5.57;;
19341;SDS011;9807;48.258;12.690;2023-11-22T03:24:17;8.63;;;6.13;;
19341;SDS011;9807;48.258;12.690;2023-11-22T03:26:43;9.57;;;6.60;;
19341;SDS011;9807;48.258;12.690;2023-11-22T03:29:10;8.63;;;6.07;;
19341;SDS011;9807;48.258;12.690;2023-11-22T03:31:36;8.20;;;6.20;;
19341;SDS011;9807;48.258;12.690;2023-11-22T03:34:04;9.00;;;6.20;;
19341;SDS011;9807;48.258;12.690;2023-11-22T03:36:30;8.80;;;6.60;;
19341;SDS011;9807;48.258;12.690;2023-11-22T03:38:55;7.87;;;5.70;;
19341;SDS011;9807;48.258;12.690;2023-11-22T03:41:21;8.73;;;6.20;;
19341;SDS011;9807;48.258;12.690;2023-11-22T03:43:47;9.33;;;6.47;;
19341;SDS011;9807;48.258;12.690;2023-11-22T03:46:12;8.60;;;6.00;;
19341;SDS011;9807;48.258;12.690;2023-11-22T03:48:40;8.43;;;5.83;;
19341;SDS011;9807;48.258;12.690;2023-11-22T03:51:06;9.37;;;6.63;;
19341;SDS011;9807;48.258;12.690;2023-11-22T03:53:32;8.43;;;5.90;;
19341;SDS011;9807;48.258;12.690;2023-11-22T03:55:57;9.93;;;6.10;;
19341;SDS011;9807;48.258;12.690;2023-11-22T03:58:23;9.97;;;5.73;;
19341;SDS011;9807;48.258;12.690;2023-11-22T04:00:49;7.47;;;5.70;;
19341;SDS011;9807;48.258;12.690;2023-11-22T04:03:17;7.87;;;5.90;;
19341;SDS011;9807;48.258;12.690;2023-11-22T04:05:46;7.07;;;5.43;;
19341;SDS011;9807;48.258;12.690;2023-11-22T04:08:12;7.30;;;5.50;;
19341;SDS011;9807;48.258;12.690;2023-11-22T04:10:37;8.13;;;5.70;;
19341;SDS011;9807;48.258;12.690;2023-11-22T04:13:03;7.63;;;5.30;;
19341;SDS011;9807;48.258;12.690;2023-11-22T04:15:29;8.33;;;5.57;;
19341;SDS011;9807;48.258;12.690;2023-11-22T04:17:55;9.07;;;5.07;;
19341;SDS011;9807;48.258;12.690;2023-11-22T04:20:25;7.33;;;5.37;;
19341;SDS011;9807;48.258;12.690;2023-11-22T04:22:50;6.50;;;4.90;;
19341;SDS011;9807;48.258;12.690;2023-11-22T04:25:16;7.80;;;5.07;;
19341;SDS011;9807;48.258;12.690;2023-11-22T04:27:43;7.80;;;5.40;;
19341;SDS011;9807;48.258;12.690;2023-11-22T04:30:09;7.43;;;5.20;;
19341;SDS011;9807;48.258;12.690;2023-11-22T04:32:42;6.73;;;4.90;;
19341;SDS011;9807;48.258;12.690;2023-11-22T04:35:09;6.47;;;4.77;;
19341;SDS011;9807;48.258;12.690;2023-11-22T04:37:35;6.30;;;4.67;;
19341;SDS011;9807;48.258;12.690;2023-11-22T04:40:02;7.50;;;5.27;;
19341;SDS011;9807;48.258;12.690;2023-11-22T04:42:33;9.07;;;4.90;;
19341;SDS011;9807;48.258;12.690;2023-11-22T04:45:00;7.80;;;4.73;;
19341;SDS011;9807;48.258;12.690;2023-11-22T04:47:26;7.23;;;4.53;;
19341;SDS011;9807;48.258;12.690;2023-11-22T04:49:52;6.53;;;4.50;;
19341;SDS011;9807;48.258;12.690;2023-11-22T04:52:17;5.40;;;4.40;;
19341;SDS011;9807;48.258;12.690;2023-11-22T04:54:43;6.23;;;4.60;;
19341;SDS011;9807;48.258;12.690;2023-11-22T04:57:09;5.90;;;4.57;;
19341;SDS011;9807;48.258;12.690;2023-11-22T04:59:35;8.27;;;4.27;;
19341;SDS011;9807;48.258;12.690;2023-11-22T05:02:03;5.77;;;4.13;;
19341;SDS011;9807;48.258;12.690;2023-11-22T05:04:29;7.30;;;4.43;;
19341;SDS011;9807;48.258;12.690;2023-11-22T05:06:55;8.57;;;4.60;;
19341;SDS011;9807;48.258;12.690;2023-11-22T05:09:21;6.87;;;4.57;;
19341;SDS011;9807;48.258;12.690;2023-11-22T05:11:46;7.63;;;4.40;;
19341;SDS011;9807;48.258;12.690;2023-11-22T05:14:12;5.50;;;4.30;;
19341;SDS011;9807;48.258;12.690;2023-11-22T05:16:42;5.77;;;4.13;;
19341;SDS011;9807;48.258;12.690;2023-11-22T05:19:09;6.50;;;4.00;;
19341;SDS011;9807;48.258;12.690;2023-11-22T05:21:34;6.47;;;4.27;;
19341;SDS011;9807;48.258;12.690;2023-11-22T05:24:00;5.73;;;4.13;;
19341;SDS011;9807;48.258;12.690;2023-11-22T05:26:26;5.60;;;3.97;;
19341;SDS011;9807;48.258;12.690;2023-11-22T05:28:52;6.37;;;3.87;;
19341;SDS011;9807;48.258;12.690;2023-11-22T05:31:19;5.23;;;3.70;;
19341;SDS011;9807;48.258;12.690;2023-11-22T05:33:48;5.53;;;3.80;;
19341;SDS011;9807;48.258;12.690;2023-11-22T05:36:15;7.67;;;3.90;;
19341;SDS011;9807;48.258;12.690;2023-11-22T05:38:44;6.97;;;4.47;;
19341;SDS011;9807;48.258;12.690;2023-11-22T05:41:09;5.83;;;3.80;;
19341;SDS011;9807;48.258;12.690;2023-11-22T05:43:35;5.67;;;4.00;;
19341;SDS011;9807;48.258;12.690;2023-11-22T05:46:02;4.63;;;3.53;;
19341;SDS011;9807;48.258;12.690;2023-11-22T05:48:28;4.27;;;3.20;;
19341;SDS011;9807;48.258;12.690;2023-11-22T05:50:54;5.87;;;3.17;;
19341;SDS011;9807;48.258;12.690;2023-11-22T05:53:20;4.90;;;3.50;;
19341;SDS011;9807;48.258;12.690;2023-11-22T05:55:46;3.73;;;3.07;;
19341;SDS011;9807;48.258;12.690;2023-11-22T05:58:14;4.10;;;2.90;;
19341;SDS011;9807;48.258;12.690;2023-11-22T06:00:46;4.57;;;3.07;;
19341;SDS011;9807;48.258;12.690;2023-11-22T06:03:12;4.37;;;3.03;;
19341;SDS011;9807;48.258;12.690;2023-11-22T06:05:42;8.30;;;3.53;;
19341;SDS011;9807;48.258;12.690;2023-11-22T06:08:08;4.57;;;3.43;;
19341;SDS011;9807;48.258;12.690;2023-11-22T06:10:36;3.40;;;2.67;;
19341;SDS011;9807;48.258;12.690;2023-11-22T06:13:06;4.73;;;2.80;;
19341;SDS011;9807;48.258;12.690;2023-11-22T06:15:31;3.33;;;2.40;;
19341;SDS011;9807;48.258;12.690;2023-11-22T06:17:57;4.43;;;3.03;;
19341;SDS011;9807;48.258;12.690;2023-11-22T06:20:23;3.77;;;2.90;;
19341;SDS011;9807;48.258;12.690;2023-11-22T06:22:53;3.07;;;2.23;;
19341;SDS011;9807;48.258;12.690;2023-11-22T06:25:18;6.77;;;2.70;;
19341;SDS011;9807;48.258;12.690;2023-11-22T06:27:44;3.57;;;2.70;;
19341;SDS011;9807;48.258;12.690;2023-11-22T06:30:12;7.00;;;2.57;;
19341;SDS011;9807;48.258;12.690;2023-11-22T06:32:41;12.00;;;5.10;;
19341;SDS011;9807;48.258;12.690;2023-11-22T06:35:08;3.00;;;2.50;;
19341;SDS011;9807;48.258;12.690;2023-11-22T06:37:34;4.47;;;2.83;;
19341;SDS011;9807;48.258;12.690;2023-11-22T06:40:00;3.17;;;2.50;;
19341;SDS011;9807;48.258;12.690;2023-11-22T06:42:26;5.37;;;2.50;;
19341;SDS011;9807;48.258;12.690;2023-11-22T06:44:52;3.10;;;2.50;;
19341;SDS011;9807;48.258;12.690;2023-11-22T06:47:19;2.63;;;2.43;;
19341;SDS011;9807;48.258;12.690;2023-11-22T06:49:44;4.13;;;2.90;;
19341;SDS011;9807;48.258;12.690;2023-11-22T06:52:11;3.63;;;2.73;;
19341;SDS011;9807;48.258;12.690;2023-11-22T06:54:37;3.70;;;2.93;;
19341;SDS011;9807;48.258;12.690;2023-11-22T06:57:03;4.10;;;2.60;;
19341;SDS011;9807;48.258;12.690;2023-11-22T06:59:29;4.27;;;2.87;;
19341;SDS011;9807;48.258;12.690;2023-11-22T07:01:55;7.57;;;3.87;;
19341;SDS011;9807;48.258;12.690;2023-11-22T07:04:23;4.07;;;2.80;;
19341;SDS011;9807;48.258;12.690;2023-11-22T07:06:49;4.03;;;2.37;;
19341;SDS011;9807;48.258;12.690;2023-11-22T07:09:15;6.47;;;2.90;;
19341;SDS011;9807;48.258;12.690;2023-11-22T07:11:44;3.17;;;2.63;;
19341;SDS011;9807;48.258;12.690;2023-11-22T07:14:10;5.10;;;2.70;;
19341;SDS011;9807;48.258;12.690;2023-11-22T07:16:36;3.53;;;2.67;;
19341;SDS011;9807;48.258;12.690;2023-11-22T07:19:02;4.27;;;2.97;;
19341;SDS011;9807;48.258;12.690;2023-11-22T07:21:31;4.83;;;2.80;;
19341;SDS011;9807;48.258;12.690;2023-11-22T07:23:57;2.30;;;1.80;;
19341;SDS011;9807;48.258;12.690;2023-11-22T07:26:27;4.67;;;2.70;;
19341;SDS011;9807;48.258;12.690;2023-11-22T07:28:53;5.87;;;2.70;;
19341;SDS011;9807;48.258;12.690;2023-11-22T07:31:19;3.30;;;2.60;;
19341;SDS011;9807;48.258;12.690;2023-11-22T07:33:46;4.53;;;2.80;;
19341;SDS011;9807;48.258;12.690;2023-11-22T07:36:11;2.93;;;2.60;;
19341;SDS011;9807;48.258;12.690;2023-11-22T07:38:41;3.50;;;2.47;;
19341;SDS011;9807;48.258;12.690;2023-11-22T07:41:07;2.97;;;2.50;;
19341;SDS011;9807;48.258;12.690;2023-11-22T07:43:33;3.33;;;2.80;;
19341;SDS011;9807;48.258;12.690;2023-11-22T07:46:04;3.47;;;3.00;;
19341;SDS011;9807;48.258;12.690;2023-11-22T07:48:37;3.27;;;2.63;;
19341;SDS011;9807;48.258;12.690;2023-11-22T07:51:06;4.13;;;3.03;;
19341;SDS011;9807;48.258;12.690;2023-11-22T07:53:32;5.00;;;3.03;;
19341;SDS011;9807;48.258;12.690;2023-11-22T07:56:00;3.87;;;3.20;;
19341;SDS011;9807;48.258;12.690;2023-11-22T07:58:32;4.70;;;3.10;;
19341;SDS011;9807;48.258;12.690;2023-11-22T08:00:59;4.60;;;3.20;;
19341;SDS011;9807;48.258;12.690;2023-11-22T08:03:25;3.60;;;3.07;;
19341;SDS011;9807;48.258;12.690;2023-11-22T08:05:51;4.00;;;3.10;;
19341;SDS011;9807;48.258;12.690;2023-11-22T08:08:20;4.10;;;3.10;;
19341;SDS011;9807;48.258;12.690;2023-11-22T08:10:46;9.63;;;3.47;;
19341;SDS011;9807;48.258;12.690;2023-11-22T08:13:14;5.20;;;3.70;;
19341;SDS011;9807;48.258;12.690;2023-11-22T08:15:44;7.53;;;4.13;;
19341;SDS011;9807;48.258;12.690;2023-11-22T08:18:11;6.33;;;4.10;;
19341;SDS011;9807;48.258;12.690;2023-11-22T08:20:39;5.47;;;3.90;;
19341;SDS011;9807;48.258;12.690;2023-11-22T08:23:06;7.27;;;4.00;;
19341;SDS011;9807;48.258;12.690;2023-11-22T08:25:33;7.03;;;4.50;;
19341;SDS011;9807;48.258;12.690;2023-11-22T08:27:59;6.33;;;3.87;;
19341;SDS011;9807;48.258;12.690;2023-11-22T08:30:26;5.40;;;4.00;;
19341;SDS011;9807;48.258;12.690;2023-11-22T08:32:52;4.90;;;4.30;;
19341;SDS011;9807;48.258;12.690;2023-11-22T08:35:19;10.23;;;4.67;;
19341;SDS011;9807;48.258;12.690;2023-11-22T08:37:48;6.37;;;4.00;;
19341;SDS011;9807;48.258;12.690;2023-11-22T08:40:16;16.50;;;4.20;;
19341;SDS011;9807;48.258;12.690;2023-11-22T08:42:47;5.07;;;4.30;;
19341;SDS011;9807;48.258;12.690;2023-11-22T08:45:14;4.83;;;4.17;;
19341;SDS011;9807;48.258;12.690;2023-11-22T08:47:44;5.33;;;4.10;;
19341;SDS011;9807;48.258;12.690;2023-11-22T08:50:11;8.13;;;4.40;;
19341;SDS011;9807;48.258;12.690;2023-11-22T08:52:37;7.93;;;4.40;;
19341;SDS011;9807;48.258;12.690;2023-11-22T08:55:04;6.53;;;4.77;;
19341;SDS011;9807;48.258;12.690;2023-11-22T08:57:35;5.87;;;4.60;;
19341;SDS011;9807;48.258;12.690;2023-11-22T09:00:02;7.50;;;4.90;;
19341;SDS011;9807;48.258;12.690;2023-11-22T09:02:32;6.10;;;4.50;;
19341;SDS011;9807;48.258;12.690;2023-11-22T09:04:58;6.43;;;5.00;;
19341;SDS011;9807;48.258;12.690;2023-11-22T09:07:24;7.20;;;4.87;;
19341;SDS011;9807;48.258;12.690;2023-11-22T09:09:51;8.27;;;4.83;;
19341;SDS011;9807;48.258;12.690;2023-11-22T09:12:17;9.33;;;5.20;;
19341;SDS011;9807;48.258;12.690;2023-11-22T09:14:44;10.97;;;4.70;;
19341;SDS011;9807;48.258;12.690;2023-11-22T09:17:10;7.20;;;5.50;;
19341;SDS011;9807;48.258;12.690;2023-11-22T09:19:36;7.23;;;5.00;;
19341;SDS011;9807;48.258;12.690;2023-11-22T09:22:03;8.97;;;4.87;;
19341;SDS011;9807;48.258;12.690;2023-11-22T09:24:31;13.63;;;5.67;;
19341;SDS011;9807;48.258;12.690;2023-11-22T09:26:57;9.73;;;5.60;;
19341;SDS011;9807;48.258;12.690;2023-11-22T09:29:23;7.50;;;5.60;;
19341;SDS011;9807;48.258;12.690;2023-11-22T09:31:48;6.40;;;5.20;;
19341;SDS011;9807;48.258;12.690;2023-11-22T09:34:17;8.43;;;5.50;;
19341;SDS011;9807;48.258;12.690;2023-11-22T09:36:45;8.43;;;5.47;;
19341;SDS011;9807;48.258;12.690;2023-11-22T09:39:11;10.43;;;5.10;;
19341;SDS011;9807;48.258;12.690;2023-11-22T09:41:38;9.27;;;5.00;;
19341;SDS011;9807;48.258;12.690;2023-11-22T09:44:04;7.50;;;5.07;;
19341;SDS011;9807;48.258;12.690;2023-11-22T09:46:30;10.80;;;5.17;;
19341;SDS011;9807;48.258;12.690;2023-11-22T09:48:59;6.63;;;4.67;;
19341;SDS011;9807;48.258;12.690;2023-11-22T09:51:28;10.87;;;5.63;;
19341;SDS011;9807;48.258;12.690;2023-11-22T09:54:03;6.50;;;5.27;;
19341;SDS011;9807;48.258;12.690;2023-11-22T09:56:32;8.37;;;5.10;;
19341;SDS011;9807;48.258;12.690;2023-11-22T09:59:01;9.37;;;5.10;;
19341;SDS011;9807;48.258;12.690;2023-11-22T10:01:29;6.23;;;5.10;;
19341;SDS011;9807;48.258;12.690;2023-11-22T10:04:04;10.00;;;5.20;;
19341;SDS011;9807;48.258;12.690;2023-11-22T10:06:31;8.23;;;4.90;;
19341;SDS011;9807;48.258;12.690;2023-11-22T10:09:00;6.97;;;5.10;;
19341;SDS011;9807;48.258;12.690;2023-11-22T10:11:33;8.43;;;4.93;;
19341;SDS011;9807;48.258;12.690;2023-11-22T10:14:04;6.77;;;5.07;;
19341;SDS011;9807;48.258;12.690;2023-11-22T10:16:29;8.40;;;5.57;;
19341;SDS011;9807;48.258;12.690;2023-11-22T10:18:55;8.77;;;5.57;;
19341;SDS011;9807;48.258;12.690;2023-11-22T10:21:23;8.40;;;5.37;;
19341;SDS011;9807;48.258;12.690;2023-11-22T10:23:57;8.03;;;5.47;;
19341;SDS011;9807;48.258;12.690;2023-11-22T10:26:27;7.97;;;5.90;;
19341;SDS011;9807;48.258;12.690;2023-11-22T10:28:53;7.13;;;5.80;;
19341;SDS011;9807;48.258;12.690;2023-11-22T10:31:21;8.70;;;6.40;;
19341;SDS011;9807;48.258;12.690;2023-11-22T10:33:47;7.13;;;6.10;;
19341;SDS011;9807;48.258;12.690;2023-11-22T10:36:15;7.30;;;5.70;;
19341;SDS011;9807;48.258;12.690;2023-11-22T10:38:46;8.83;;;6.17;;
19341;SDS011;9807;48.258;12.690;2023-11-22T10:41:12;10.07;;;6.33;;
19341;SDS011;9807;48.258;12.690;2023-11-22T10:43:43;10.07;;;7.17;;
19341;SDS011;9807;48.258;12.690;2023-11-22T10:46:10;8.50;;;6.53;;
19341;SDS011;9807;48.258;12.690;2023-11-22T10:48:46;11.67;;;7.23;;
19341;SDS011;9807;48.258;12.690;2023-11-22T10:51:12;7.47;;;6.20;;
19341;SDS011;9807;48.258;12.690;2023-11-22T10:53:45;8.77;;;6.23;;
19341;SDS011;9807;48.258;12.690;2023-11-22T10:56:15;7.70;;;6.17;;
19341;SDS011;9807;48.258;12.690;2023-11-22T10:58:50;7.93;;;6.47;;
19341;SDS011;9807;48.258;12.690;2023-11-22T11:01:22;10.40;;;6.80;;
19341;SDS011;9807;48.258;12.690;2023-11-22T11:06:32;9.77;;;7.00;;
19341;SDS011;9807;48.258;12.690;2023-11-22T11:09:00;9.87;;;7.23;;
19341;SDS011;9807;48.258;12.690;2023-11-22T11:11:31;10.30;;;7.20;;
19341;SDS011;9807;48.258;12.690;2023-11-22T11:13:59;11.80;;;7.50;;
19341;SDS011;9807;48.258;12.690;2023-11-22T11:16:26;8.73;;;7.17;;
19341;SDS011;9807;48.258;12.690;2023-11-22T11:18:56;9.80;;;6.90;;
19341;SDS011;9807;48.258;12.690;2023-11-22T11:21:22;11.07;;;7.00;;
19341;SDS011;9807;48.258;12.690;2023-11-22T11:23:51;10.07;;;7.00;;
19341;SDS011;9807;48.258;12.690;2023-11-22T11:26:20;9.67;;;6.43;;
19341;SDS011;9807;48.258;12.690;2023-11-22T11:28:49;8.83;;;6.67;;
19341;SDS011;9807;48.258;12.690;2023-11-22T11:31:16;10.30;;;6.80;;
19341;SDS011;9807;48.258;12.690;2023-11-22T11:36:31;9.77;;;6.97;;
19341;SDS011;9807;48.258;12.690;2023-11-22T11:39:07;10.17;;;7.40;;
19341;SDS011;9807;48.258;12.690;2023-11-22T11:41:40;11.43;;;8.07;;
19341;SDS011;9807;48.258;12.690;2023-11-22T11:44:09;9.80;;;7.43;;
19341;SDS011;9807;48.258;12.690;2023-11-22T11:46:37;11.17;;;7.90;;
19341;SDS011;9807;48.258;12.690;2023-11-22T11:49:06;9.60;;;7.30;;
19341;SDS011;9807;48.258;12.690;2023-11-22T11:51:33;11.73;;;8.53;;
19341;SDS011;9807;48.258;12.690;2023-11-22T11:53:59;9.93;;;7.37;;
19341;SDS011;9807;48.258;12.690;2023-11-22T11:56:24;10.90;;;8.03;;
19341;SDS011;9807;48.258;12.690;2023-11-22T11:58:51;10.70;;;8.13;;
19341;SDS011;9807;48.258;12.690;2023-11-22T12:01:22;9.33;;;6.97;;
19341;SDS011;9807;48.258;12.690;2023-11-22T12:03:48;11.73;;;8.13;;
19341;SDS011;9807;48.258;12.690;2023-11-22T12:06:18;8.83;;;7.30;;
19341;SDS011;9807;48.258;12.690;2023-11-22T12:08:44;12.23;;;8.07;;
19341;SDS011;9807;48.258;12.690;2023-11-22T12:11:12;8.70;;;6.90;;
19341;SDS011;9807;48.258;12.690;2023-11-22T12:13:46;11.10;;;7.23;;
19341;SDS011;9807;48.258;12.690;2023-11-22T12:16:15;8.43;;;7.10;;
19341;SDS011;9807;48.258;12.690;2023-11-22T12:18:42;8.63;;;7.10;;
19341;SDS011;9807;48.258;12.690;2023-11-22T12:21:09;8.70;;;7.03;;
19341;SDS011;9807;48.258;12.690;2023-11-22T12:23:41;9.10;;;7.13;;
19341;SDS011;9807;48.258;12.690;2023-11-22T12:26:17;9.37;;;7.50;;
19341;SDS011;9807;48.258;12.690;2023-11-22T12:28:45;11.13;;;7.47;;
19341;SDS011;9807;48.258;12.690;2023-11-22T12:31:16;11.07;;;7.17;;
19341;SDS011;9807;48.258;12.690;2023-11-22T12:33:42;9.40;;;7.23;;
19341;SDS011;9807;48.258;12.690;2023-11-22T12:36:10;9.87;;;7.80;;
19341;SDS011;9807;48.258;12.690;2023-11-22T12:38:42;8.87;;;7.00;;
19341;SDS011;9807;48.258;12.690;2023-11-22T12:41:09;10.30;;;7.87;;
19341;SDS011;9807;48.258;12.690;2023-11-22T12:43:34;13.73;;;9.77;;
19341;SDS011;9807;48.258;12.690;2023-11-22T12:48:39;10.43;;;8.03;;
19341;SDS011;9807;48.258;12.690;2023-11-22T12:51:16;12.33;;;8.57;;
19341;SDS011;9807;48.258;12.690;2023-11-22T12:53:45;10.53;;;8.10;;
19341;SDS011;9807;48.258;12.690;2023-11-22T12:56:11;9.67;;;7.87;;
19341;SDS011;9807;48.258;12.690;2023-11-22T12:58:37;9.80;;;7.63;;
19341;SDS011;9807;48.258;12.690;2023-11-22T13:01:02;10.47;;;8.03;;
19341;SDS011;9807;48.258;12.690;2023-11-22T13:03:28;10.70;;;8.23;;
19341;SDS011;9807;48.258;12.690;2023-11-22T13:05:54;13.17;;;9.20;;
19341;SDS011;9807;48.258;12.690;2023-11-22T13:08:21;11.70;;;8.50;;
19341;SDS011;9807;48.258;12.690;2023-11-22T13:10:54;12.50;;;9.30;;
19341;SDS011;9807;48.258;12.690;2023-11-22T13:13:20;12.77;;;8.93;;
19341;SDS011;9807;48.258;12.690;2023-11-22T13:15:47;12.50;;;8.23;;
19341;SDS011;9807;48.258;12.690;2023-11-22T13:18:16;11.93;;;8.33;;
19341;SDS011;9807;48.258;12.690;2023-11-22T13:20:43;11.50;;;8.03;;
19341;SDS011;9807;48.258;12.690;2023-11-22T13:23:10;11.43;;;8.37;;
19341;SDS011;9807;48.258;12.690;2023-11-22T13:25:37;13.90;;;9.80;;
19341;SDS011;9807;48.258;12.690;2023-11-22T13:28:03;12.10;;;7.93;;
19341;SDS011;9807;48.258;12.690;2023-11-22T13:30:30;10.63;;;8.17;;
19341;SDS011;9807;48.258;12.690;2023-11-22T13:32:56;11.27;;;8.10;;
19341;SDS011;9807;48.258;12.690;2023-11-22T13:35:23;12.50;;;7.93;;
19341;SDS011;9807;48.258;12.690;2023-11-22T13:37:49;12.07;;;7.53;;
19341;SDS011;9807;48.258;12.690;2023-11-22T13:40:16;14.17;;;8.20;;
19341;SDS011;9807;48.258;12.690;2023-11-22T13:42:46;11.23;;;8.00;;
19341;SDS011;9807;48.258;12.690;2023-11-22T13:45:15;13.90;;;8.70;;
19341;SDS011;9807;48.258;12.690;2023-11-22T13:47:47;10.40;;;7.90;;
19341;SDS011;9807;48.258;12.690;2023-11-22T13:50:28;9.27;;;7.13;;
19341;SDS011;9807;48.258;12.690;2023-11-22T13:52:54;9.30;;;7.17;;
19341;SDS011;9807;48.258;12.690;2023-11-22T13:55:21;9.60;;;7.13;;
19341;SDS011;9807;48.258;12.690;2023-11-22T13:57:48;9.53;;;6.90;;
19341;SDS011;9807;48.258;12.690;2023-11-22T14:00:19;10.07;;;7.57;;
19341;SDS011;9807;48.258;12.690;2023-11-22T14:02:51;12.27;;;7.20;;
19341;SDS011;9807;48.258;12.690;2023-11-22T14:05:18;10.73;;;6.90;;
19341;SDS011;9807;48.258;12.690;2023-11-22T14:07:45;10.47;;;7.80;;
19341;SDS011;9807;48.258;12.690;2023-11-22T14:10:11;11.87;;;7.87;;
19341;SDS011;9807;48.258;12.690;2023-11-22T14:12:41;11.13;;;7.77;;
19341;SDS011;9807;48.258;12.690;2023-11-22T14:15:08;14.70;;;7.60;;
19341;SDS011;9807;48.258;12.690;2023-11-22T14:17:34;10.97;;;7.90;;
19341;SDS011;9807;48.258;12.690;2023-11-22T14:20:00;10.97;;;8.30;;
19341;SDS011;9807;48.258;12.690;2023-11-22T14:22:26;14.13;;;9.43;;
19341;SDS011;9807;48.258;12.690;2023-11-22T14:24:52;10.43;;;7.80;;
19341;SDS011;9807;48.258;12.690;2023-11-22T14:27:21;12.90;;;8.07;;
19341;SDS011;9807;48.258;12.690;2023-11-22T14:29:47;13.43;;;8.40;;
19341;SDS011;9807;48.258;12.690;2023-11-22T14:32:18;10.67;;;7.70;;
19341;SDS011;9807;48.258;12.690;2023-11-22T14:34:44;11.97;;;8.03;;
19341;SDS011;9807;48.258;12.690;2023-11-22T14:37:11;13.50;;;8.03;;
19341;SDS011;9807;48.258;12.690;2023-11-22T14:39:37;11.93;;;7.93;;
19341;SDS011;9807;48.258;12.690;2023-11-22T14:42:03;15.60;;;8.43;;
19341;SDS011;9807;48.258;12.690;2023-11-22T14:44:33;12.60;;;8.30;;
19341;SDS011;9807;48.258;12.690;2023-11-22T14:47:00;14.87;;;9.00;;
19341;SDS011;9807;48.258;12.690;2023-11-22T14:49:34;15.87;;;10.20;;
19341;SDS011;9807;48.258;12.690;2023-11-22T14:52:00;20.40;;;10.17;;